createdAt,value
2023-01-06T00:09:10.068Z,100609.80
2023-01-06T00:24:13.869Z,100624.85
2023-01-06T00:39:27.866Z,100646.29
2023-01-06T00:54:43.792Z,100657.19
2023-01-06T01:09:46.983Z,100680.55
2023-01-06T01:24:50.375Z,100703.66
2023-01-06T01:39:53.474Z,100745.39
2023-01-06T01:54:57.131Z,100781.20
2023-01-06T02:10:10.029Z,100795.49
2023-01-06T02:25:19.140Z,100802.67
2023-01-06T02:41:02.263Z,100809.91
2023-01-06T02:56:06.391Z,100818.19
2023-01-06T03:11:10.079Z,100834.30
2023-01-06T03:26:14.720Z,100845.48
2023-01-06T03:41:44.632Z,100842.23
2023-01-06T03:56:57.021Z,100849.11
2023-01-06T04:12:19.084Z,100859.40
2023-01-06T04:27:22.478Z,100858.77
2023-01-06T04:42:25.805Z,100885.27
2023-01-06T04:57:29.177Z,100888.88
2023-01-06T05:12:33.148Z,100895.34
2023-01-06T05:27:36.308Z,100910.98
2023-01-06T05:42:39.713Z,100928.86
2023-01-06T05:57:43.036Z,100946.02
2023-01-06T06:12:46.226Z,100969.02
2023-01-06T06:27:49.757Z,100977.73
2023-01-06T06:42:53.220Z,100973.21
2023-01-06T06:57:56.391Z,100978.71
2023-01-06T07:12:59.585Z,100990.67
2023-01-06T07:28:05.786Z,100979.70
2023-01-06T07:43:10.965Z,100984.66
2023-01-06T07:58:14.156Z,100982.86
2023-01-06T08:13:19.623Z,100996.13
2023-01-06T08:28:23.716Z,101004.09
2023-01-06T08:43:28.521Z,101006.52
2023-01-06T08:58:31.697Z,101017.42
2023-01-06T09:13:36.262Z,101018.27
2023-01-06T09:28:39.563Z,100995.25
2023-01-06T09:43:52.823Z,100955.40
2023-01-06T09:59:11.111Z,100946.05
2023-01-06T10:14:15.297Z,100931.23
2023-01-06T10:29:20.105Z,100924.80
2023-01-06T10:44:23.312Z,100917.95
2023-01-06T10:59:26.574Z,100904.77
2023-01-06T11:14:32.958Z,100916.42
2023-01-06T11:29:36.184Z,100888.02
2023-01-06T11:44:41.202Z,100875.38
2023-01-06T12:00:13.887Z,100862.08
2023-01-06T12:15:19.434Z,100856.61
2023-01-06T12:30:40.280Z,100818.27
2023-01-06T12:45:58.094Z,100779.48
2023-01-06T13:01:09.321Z,100756.11
2023-01-06T13:16:53.600Z,100731.63
2023-01-06T13:32:23.516Z,100709.09
2023-01-06T13:47:27.640Z,100690.73
2023-01-06T14:02:34.479Z,100692.51
2023-01-06T14:17:41.283Z,100702.54
2023-01-06T14:32:45.013Z,100677.73
2023-01-06T14:47:52.457Z,100657.96
2023-01-06T15:03:03.061Z,100651.27
2023-01-06T15:18:07.859Z,100600.95
2023-01-06T15:33:12.180Z,100598.98
2023-01-06T15:48:21.158Z,100575.95
2023-01-06T16:03:27.243Z,100558.02
2023-01-06T16:18:33.664Z,100542.73
2023-01-06T16:33:41.387Z,100525.98
2023-01-06T16:48:45.103Z,100500.61
2023-01-06T17:03:55.349Z,100485.52
2023-01-06T17:19:26.883Z,100461.48
2023-01-06T17:34:37.073Z,100436.11
2023-01-06T17:49:40.986Z,100427.29
2023-01-06T18:04:46.775Z,100409.56
2023-01-06T18:19:50.984Z,100430.30
2023-01-06T18:35:02.459Z,100433.69
2023-01-06T18:50:42.107Z,100433.41
2023-01-06T19:05:45.827Z,100428.88
2023-01-06T19:20:52.155Z,100437.52
2023-01-06T19:35:59.049Z,100441.86
2023-01-06T19:51:17.474Z,100436.52
2023-01-06T20:06:22.074Z,100449.54
2023-01-06T20:21:25.476Z,100457.39
2023-01-06T20:36:29.093Z,100456.64
2023-01-06T20:51:33.037Z,100463.04
2023-01-06T21:06:43.570Z,100469.52
2023-01-06T21:21:48.243Z,100463.58
2023-01-06T21:36:51.620Z,100467.33
2023-01-06T21:51:55.924Z,100466.31
2023-01-06T22:07:02.863Z,100475.48
2023-01-06T22:22:09.476Z,100485.00
2023-01-06T22:37:12.805Z,100494.84
2023-01-06T22:52:16.201Z,100498.83
2023-01-06T23:07:19.371Z,100509.27
2023-01-06T23:22:25.841Z,100514.48
2023-01-06T23:37:29.061Z,100527.83
2023-01-06T23:52:32.650Z,100541.02
